LFOH/LEH METAR and TAF weather

Enter ICAO airport designator
Station Type Date Time Source
LFOH METAR 2019/04/18 22:00 UTC NOAA

LFOH 182200Z AUTO 09005KT CAVOK 14/05 Q1022


Station Type Date Time Source
LFOH Decoded METAR 2019/04/18 22:00 UTC NOAA

La Heve, France (LFOH) 49-31N 000-04E 103M
Apr 18, 2019 - 06:00 PM EDT / 2019.04.18 2200 UTC
Wind: from the E (090 degrees) at 6 MPH (5 KT):0
Visibility: greater than 7 mile(s):0
Temperature: 57 F (14 C)
Dew Point: 41 F (5 C)
Relative Humidity: 54%
Pressure (altimeter): 30.18 in. Hg (1022 hPa)
ob: LFOH 182200Z AUTO 09005KT CAVOK 14/05 Q1022
cycle: 22

Station Type Date Time Source
LFOH TAF 2019/04/18 18:07 UTC NOAA

TAF LFOH 181800Z 1818/1912 CNL

Example: see airport list